createdAt,value
2024-03-30T00:00:46.470Z,13.04
2024-03-30T00:01:46.462Z,13.03
2024-03-30T00:02:46.512Z,11.84
2024-03-30T00:03:46.464Z,14.00
2024-03-30T00:04:46.463Z,12.48
2024-03-30T00:05:46.500Z,12.44
2024-03-30T00:06:46.509Z,16.85
2024-03-30T00:07:46.546Z,14.57
2024-03-30T00:08:46.616Z,15.50
2024-03-30T00:09:46.640Z,12.34
2024-03-30T00:10:46.674Z,10.65
2024-03-30T00:11:46.727Z,11.67
2024-03-30T00:12:46.782Z,10.69
2024-03-30T00:13:46.809Z,15.24
2024-03-30T00:14:46.866Z,12.99
2024-03-30T00:15:46.907Z,10.56
2024-03-30T00:16:46.968Z,12.78
2024-03-30T00:17:47.031Z,13.06
2024-03-30T00:18:47.067Z,13.36
2024-03-30T00:19:47.148Z,13.72
2024-03-30T00:20:47.174Z,16.28
2024-03-30T00:21:47.191Z,15.55
2024-03-30T00:22:47.248Z,10.18
2024-03-30T00:23:47.327Z,14.80
2024-03-30T00:24:47.340Z,10.34
2024-03-30T00:25:47.385Z,12.01
2024-03-30T00:26:47.430Z,9.75
2024-03-30T00:27:47.474Z,9.69
2024-03-30T00:28:47.517Z,13.63
2024-03-30T00:29:47.548Z,14.21
2024-03-30T00:30:47.521Z,14.36
2024-03-30T00:31:47.524Z,12.03
2024-03-30T00:32:47.539Z,12.19
2024-03-30T00:33:47.530Z,16.28
2024-03-30T00:34:47.532Z,12.92
2024-03-30T00:35:47.551Z,13.39
2024-03-30T00:36:47.542Z,15.87
2024-03-30T00:37:47.550Z,15.88
2024-03-30T00:38:47.568Z,19.70
2024-03-30T00:39:47.539Z,13.91
2024-03-30T00:40:47.547Z,15.37
2024-03-30T00:41:47.557Z,11.41
2024-03-30T00:42:57.225Z,14.92
2024-03-30T00:43:48.553Z,15.13
2024-03-30T00:44:47.564Z,12.99
2024-03-30T00:45:47.550Z,9.32
2024-03-30T00:46:47.555Z,15.81
2024-03-30T00:47:48.125Z,10.22
2024-03-30T00:48:47.558Z,12.82
2024-03-30T00:49:47.553Z,11.92
2024-03-30T00:50:47.556Z,14.12
2024-03-30T00:51:47.567Z,12.46
2024-03-30T00:52:47.586Z,13.70
2024-03-30T00:53:47.557Z,9.92
2024-03-30T00:54:47.552Z,13.52
2024-03-30T00:55:47.548Z,14.43
2024-03-30T00:56:47.604Z,15.32
2024-03-30T00:57:47.650Z,14.80
2024-03-30T00:58:47.679Z,9.88
2024-03-30T00:59:47.734Z,14.59
2024-03-30T01:00:47.777Z,12.51
2024-03-30T01:01:47.801Z,10.64
2024-03-30T01:02:47.892Z,12.36
2024-03-30T01:03:47.909Z,10.70
2024-03-30T01:04:47.958Z,11.39
2024-03-30T01:05:48.014Z,13.68
2024-03-30T01:06:48.057Z,10.24
2024-03-30T01:07:48.096Z,11.96
2024-03-30T01:08:48.149Z,11.69
2024-03-30T01:09:48.188Z,11.90
2024-03-30T01:10:48.234Z,10.68
2024-03-30T01:11:48.278Z,15.18
2024-03-30T01:12:48.277Z,12.43
2024-03-30T01:13:48.286Z,14.98
2024-03-30T01:14:48.284Z,12.45
2024-03-30T01:15:48.300Z,13.48
2024-03-30T01:16:48.302Z,12.74
2024-03-30T01:17:48.299Z,12.63
2024-03-30T01:18:48.290Z,16.71
2024-03-30T01:19:48.283Z,15.75
2024-03-30T01:20:48.320Z,16.19
2024-03-30T01:21:48.299Z,14.96
2024-03-30T01:22:48.299Z,11.56
2024-03-30T01:23:48.356Z,9.32
2024-03-30T01:24:48.315Z,14.48
2024-03-30T01:25:48.373Z,11.47
2024-03-30T01:26:48.436Z,17.77
2024-03-30T01:27:48.484Z,12.67
2024-03-30T01:28:48.539Z,12.33
2024-03-30T01:29:48.551Z,12.67
2024-03-30T01:30:48.600Z,14.53
2024-03-30T01:31:48.660Z,18.64
2024-03-30T01:32:48.765Z,13.79
2024-03-30T01:33:48.728Z,15.71
2024-03-30T01:34:48.731Z,15.63
2024-03-30T01:35:48.745Z,12.90
2024-03-30T01:36:48.737Z,17.73
2024-03-30T01:37:48.766Z,16.52
2024-03-30T01:38:48.735Z,16.15
2024-03-30T01:39:48.734Z,14.15
2024-03-30T01:40:48.740Z,13.22
2024-03-30T01:41:48.749Z,16.26
2024-03-30T01:42:48.735Z,17.09
2024-03-30T01:43:48.756Z,15.14
2024-03-30T01:44:48.823Z,13.09
2024-03-30T01:45:48.891Z,12.20
2024-03-30T01:46:48.929Z,17.19
2024-03-30T01:47:48.993Z,12.90
2024-03-30T01:48:49.046Z,14.16
2024-03-30T01:49:49.113Z,15.88
2024-03-30T01:50:49.164Z,15.72
2024-03-30T01:51:49.219Z,13.88
2024-03-30T01:52:52.284Z,14.56
2024-03-30T01:53:50.321Z,17.35
2024-03-30T01:54:49.290Z,13.52
2024-03-30T01:55:49.316Z,15.46
2024-03-30T01:56:49.299Z,14.42
2024-03-30T01:57:49.314Z,17.01
2024-03-30T01:58:49.297Z,18.75
2024-03-30T01:59:49.349Z,13.23
2024-03-30T02:00:49.301Z,16.79
2024-03-30T02:01:49.303Z,15.42
2024-03-30T02:02:49.348Z,16.02
2024-03-30T02:03:49.356Z,16.40
2024-03-30T02:04:49.417Z,15.23
2024-03-30T02:05:49.447Z,19.46
2024-03-30T02:06:49.440Z,16.84
2024-03-30T02:07:49.440Z,25.22
2024-03-30T02:08:49.459Z,15.59
2024-03-30T02:09:49.526Z,17.05
2024-03-30T02:10:49.618Z,16.11
2024-03-30T02:11:49.661Z,19.05
2024-03-30T02:12:49.719Z,17.59
2024-03-30T02:13:49.770Z,14.73
2024-03-30T02:14:49.852Z,15.85
2024-03-30T02:15:49.886Z,16.84
2024-03-30T02:16:49.967Z,13.47
2024-03-30T02:17:50.096Z,17.14
2024-03-30T02:18:50.093Z,13.78
2024-03-30T02:19:50.142Z,22.86
2024-03-30T02:20:50.241Z,15.64
2024-03-30T02:21:50.244Z,17.86
2024-03-30T02:22:50.331Z,17.29
2024-03-30T02:23:50.410Z,15.12
2024-03-30T02:24:50.452Z,16.86
2024-03-30T02:25:50.499Z,16.85
2024-03-30T02:26:50.591Z,13.78
2024-03-30T02:27:50.634Z,15.98
2024-03-30T02:28:50.670Z,17.81
2024-03-30T02:29:50.772Z,20.19
2024-03-30T02:30:50.781Z,17.85
2024-03-30T02:31:50.852Z,15.38
2024-03-30T02:32:50.924Z,16.06
2024-03-30T02:33:50.972Z,16.25
2024-03-30T02:34:51.027Z,16.16
2024-03-30T02:35:51.152Z,18.30
2024-03-30T02:36:51.144Z,15.78
2024-03-30T02:37:51.205Z,20.55
2024-03-30T02:38:51.271Z,16.00
2024-03-30T02:39:51.317Z,17.42
2024-03-30T02:40:51.378Z,17.51
2024-03-30T02:41:51.447Z,19.78
2024-03-30T02:42:51.495Z,18.50
2024-03-30T02:43:51.551Z,20.70
2024-03-30T02:44:51.613Z,19.25
2024-03-30T02:45:51.674Z,19.87
2024-03-30T02:46:51.740Z,19.52
2024-03-30T02:47:51.805Z,15.33
2024-03-30T02:48:51.902Z,19.77
2024-03-30T02:49:51.893Z,15.12
2024-03-30T02:50:52.002Z,16.09
2024-03-30T02:51:52.020Z,19.98
2024-03-30T02:52:52.083Z,17.36
2024-03-30T02:53:52.153Z,16.69
2024-03-30T02:54:52.205Z,15.78
2024-03-30T02:55:52.196Z,15.94
2024-03-30T02:56:52.211Z,14.14
2024-03-30T02:57:52.198Z,17.82
2024-03-30T02:58:52.200Z,19.01
2024-03-30T02:59:52.204Z,16.44
2024-03-30T03:00:52.208Z,17.71
2024-03-30T03:01:52.220Z,18.13
2024-03-30T03:02:52.237Z,18.26
2024-03-30T03:03:52.195Z,17.19
2024-03-30T03:04:52.207Z,18.92
2024-03-30T03:05:52.205Z,16.91
2024-03-30T03:06:52.282Z,15.39
2024-03-30T03:07:52.310Z,16.35
2024-03-30T03:08:52.427Z,19.32
2024-03-30T03:09:52.405Z,16.73
2024-03-30T03:10:52.495Z,15.88
2024-03-30T03:11:52.574Z,26.01
2024-03-30T03:12:52.589Z,14.03
2024-03-30T03:13:52.594Z,14.20
2024-03-30T03:14:52.665Z,15.64
2024-03-30T03:15:52.678Z,13.94
2024-03-30T03:16:52.738Z,16.85
2024-03-30T03:17:52.804Z,16.01
2024-03-30T03:18:52.840Z,17.21
2024-03-30T03:19:52.879Z,14.14
2024-03-30T03:20:52.953Z,13.95
2024-03-30T03:21:52.984Z,17.04
2024-03-30T03:22:53.046Z,12.94
2024-03-30T03:23:53.093Z,15.82
2024-03-30T03:24:53.132Z,15.38
2024-03-30T03:25:53.186Z,16.81
2024-03-30T03:26:53.231Z,13.45
2024-03-30T03:27:53.285Z,14.85
2024-03-30T03:28:53.348Z,13.91
2024-03-30T03:29:53.387Z,15.78
2024-03-30T03:30:53.451Z,8.59
2024-03-30T03:31:53.503Z,13.95
2024-03-30T03:32:53.611Z,10.67
2024-03-30T03:33:53.619Z,12.11
2024-03-30T03:34:53.711Z,14.48
2024-03-30T03:35:53.802Z,9.20
2024-03-30T03:36:53.822Z,9.53
2024-03-30T03:37:53.897Z,11.15
2024-03-30T03:38:53.994Z,12.63
2024-03-30T03:39:54.005Z,11.32
2024-03-30T03:40:54.050Z,9.89
2024-03-30T03:41:54.076Z,13.18
2024-03-30T03:42:54.106Z,12.00
2024-03-30T03:43:54.096Z,12.75
2024-03-30T03:44:54.113Z,11.13
2024-03-30T03:45:54.101Z,12.50
2024-03-30T03:46:54.102Z,9.44
2024-03-30T03:47:54.108Z,11.08
2024-03-30T03:48:54.110Z,13.24
2024-03-30T03:49:54.104Z,14.85
2024-03-30T03:50:54.137Z,14.66
2024-03-30T03:51:54.111Z,17.38
2024-03-30T03:52:54.115Z,12.06
2024-03-30T03:53:54.121Z,10.41
2024-03-30T03:54:54.108Z,9.03
2024-03-30T03:55:54.168Z,9.48
2024-03-30T03:56:54.269Z,11.17
2024-03-30T03:57:54.267Z,10.68
2024-03-30T03:58:54.294Z,11.63
2024-03-30T03:59:54.335Z,10.19
2024-03-30T04:00:54.363Z,9.85
2024-03-30T04:01:54.403Z,11.96
2024-03-30T04:02:54.458Z,11.58
2024-03-30T04:03:54.442Z,9.62
2024-03-30T04:04:54.470Z,10.04
2024-03-30T04:05:54.488Z,11.93
2024-03-30T04:06:54.522Z,11.54
2024-03-30T04:07:54.540Z,9.29
2024-03-30T04:08:54.551Z,11.47
2024-03-30T04:09:54.551Z,11.90
2024-03-30T04:10:54.571Z,10.58
2024-03-30T04:11:54.625Z,10.51
2024-03-30T04:12:54.628Z,10.23
2024-03-30T04:13:54.632Z,9.89
2024-03-30T04:14:54.673Z,13.44
2024-03-30T04:15:54.693Z,9.59
2024-03-30T04:16:54.722Z,10.78
2024-03-30T04:17:54.748Z,14.12
2024-03-30T04:18:54.768Z,9.20
2024-03-30T04:19:54.803Z,10.62
2024-03-30T04:20:54.839Z,10.27
2024-03-30T04:21:54.868Z,12.88
2024-03-30T04:23:02.073Z,9.92
2024-03-30T04:24:02.061Z,9.71
2024-03-30T04:25:02.085Z,10.60
2024-03-30T04:26:02.083Z,9.67
2024-03-30T04:27:02.095Z,11.57
2024-03-30T04:28:02.089Z,10.63
2024-03-30T04:29:02.088Z,10.29
2024-03-30T04:30:02.191Z,10.82
2024-03-30T04:31:09.370Z,7.97
2024-03-30T04:32:09.372Z,11.61
2024-03-30T04:33:09.374Z,8.43
2024-03-30T04:34:09.374Z,11.98
2024-03-30T04:35:09.358Z,10.08
2024-03-30T04:36:09.358Z,10.00
2024-03-30T04:37:09.374Z,11.52
2024-03-30T04:38:09.374Z,11.54
2024-03-30T04:39:09.364Z,9.60
2024-03-30T04:40:09.363Z,11.73
2024-03-30T04:41:09.374Z,8.70
2024-03-30T04:42:09.358Z,10.61
2024-03-30T04:43:09.366Z,8.65
2024-03-30T04:44:09.373Z,11.70
2024-03-30T04:45:09.374Z,10.50
2024-03-30T04:46:09.392Z,9.54
2024-03-30T04:47:09.385Z,9.82
2024-03-30T04:48:09.379Z,10.87
2024-03-30T04:49:12.276Z,9.83
2024-03-30T04:50:09.369Z,9.38
2024-03-30T04:51:09.376Z,9.16
2024-03-30T04:52:09.375Z,7.98
2024-03-30T04:53:09.388Z,10.85
2024-03-30T04:54:09.383Z,9.15
2024-03-30T04:55:09.377Z,9.41
2024-03-30T04:56:09.380Z,10.21
2024-03-30T04:57:09.371Z,10.65
2024-03-30T04:58:09.375Z,9.14
2024-03-30T04:59:09.371Z,10.24
2024-03-30T05:00:09.395Z,8.71
2024-03-30T05:01:09.392Z,7.39
2024-03-30T05:02:09.379Z,9.10
2024-03-30T05:03:09.389Z,9.66
2024-03-30T05:04:09.386Z,9.41
2024-03-30T05:05:09.397Z,13.03
2024-03-30T05:06:09.389Z,10.28
2024-03-30T05:07:09.404Z,9.06
2024-03-30T05:08:09.424Z,9.46
2024-03-30T05:09:09.389Z,8.55
2024-03-30T05:10:09.397Z,10.61
2024-03-30T05:11:09.394Z,9.03
2024-03-30T05:12:09.395Z,11.26
2024-03-30T05:13:09.402Z,8.29
2024-03-30T05:14:09.410Z,9.26
2024-03-30T05:15:09.401Z,10.01
2024-03-30T05:16:09.461Z,9.80
2024-03-30T05:17:09.405Z,9.50
2024-03-30T05:18:09.425Z,7.69
2024-03-30T05:19:09.419Z,8.55
2024-03-30T05:20:09.484Z,11.59
2024-03-30T05:21:09.546Z,9.35
2024-03-30T05:22:09.602Z,9.59
2024-03-30T05:23:09.659Z,9.74
2024-03-30T05:24:09.702Z,7.59
2024-03-30T05:25:09.742Z,8.84
2024-03-30T05:26:09.807Z,6.39
2024-03-30T05:27:09.858Z,7.05
2024-03-30T05:28:09.912Z,9.44
2024-03-30T05:29:09.963Z,8.26
2024-03-30T05:30:10.005Z,8.39
2024-03-30T05:31:10.077Z,8.13
2024-03-30T05:32:10.133Z,10.01
2024-03-30T05:33:10.201Z,8.23
2024-03-30T05:34:10.254Z,8.41
2024-03-30T05:35:10.313Z,9.32
2024-03-30T05:36:10.357Z,8.91
2024-03-30T05:37:10.398Z,8.32
2024-03-30T05:38:10.458Z,10.21
2024-03-30T05:39:10.520Z,10.19
2024-03-30T05:40:10.528Z,10.79
2024-03-30T05:41:10.523Z,10.06
2024-03-30T05:42:10.513Z,10.87
2024-03-30T05:43:10.521Z,12.99
2024-03-30T05:44:10.532Z,7.94
2024-03-30T05:45:10.528Z,9.89
2024-03-30T05:46:10.546Z,9.11
2024-03-30T05:47:12.474Z,9.10
2024-03-30T05:48:10.524Z,8.84
2024-03-30T05:49:10.526Z,8.61
2024-03-30T05:50:10.536Z,7.84
2024-03-30T05:51:10.522Z,9.63
2024-03-30T05:52:10.521Z,11.52
2024-03-30T05:53:10.531Z,7.87
2024-03-30T05:54:10.524Z,8.94
2024-03-30T05:55:10.532Z,9.51
2024-03-30T05:56:10.523Z,8.58
2024-03-30T05:57:10.538Z,9.52
2024-03-30T05:58:10.529Z,10.10
2024-03-30T05:59:10.530Z,10.40
2024-03-30T06:00:10.530Z,10.17
2024-03-30T06:01:10.537Z,8.58
2024-03-30T06:02:10.547Z,9.88
2024-03-30T06:03:10.549Z,9.86
2024-03-30T06:04:10.527Z,12.51
2024-03-30T06:05:10.540Z,10.41
2024-03-30T06:06:10.532Z,13.00
2024-03-30T06:07:10.556Z,9.58
2024-03-30T06:08:10.544Z,10.68
2024-03-30T06:09:10.547Z,12.38
2024-03-30T06:10:11.606Z,11.07
2024-03-30T06:11:10.559Z,11.16
2024-03-30T06:12:10.543Z,8.60
2024-03-30T06:13:10.542Z,9.51
2024-03-30T06:14:10.552Z,8.42
2024-03-30T06:15:10.558Z,11.47
2024-03-30T06:16:10.575Z,9.22
2024-03-30T06:17:10.555Z,9.17
2024-03-30T06:18:10.558Z,8.65
2024-03-30T06:19:10.548Z,9.55
2024-03-30T06:20:10.543Z,17.30
2024-03-30T06:21:10.549Z,10.33
2024-03-30T06:22:10.551Z,8.95
2024-03-30T06:23:10.560Z,9.50
2024-03-30T06:24:10.559Z,9.44
2024-03-30T06:25:10.563Z,9.68
2024-03-30T06:26:10.588Z,7.89
2024-03-30T06:27:10.649Z,10.11
2024-03-30T06:28:10.707Z,10.13
2024-03-30T06:29:10.763Z,9.60
2024-03-30T06:30:10.780Z,8.45
2024-03-30T06:31:10.776Z,8.40
2024-03-30T06:32:10.770Z,10.81
2024-03-30T06:33:10.776Z,8.36
2024-03-30T06:34:10.777Z,10.30
2024-03-30T06:35:10.773Z,10.22
2024-03-30T06:36:10.771Z,8.42
2024-03-30T06:37:10.785Z,10.84
2024-03-30T06:38:10.781Z,8.81
2024-03-30T06:39:10.774Z,8.76
2024-03-30T06:40:10.817Z,9.54
2024-03-30T06:41:10.870Z,11.24
2024-03-30T06:42:10.923Z,11.73
2024-03-30T06:43:10.981Z,10.84
2024-03-30T06:44:11.046Z,11.49
2024-03-30T06:45:11.119Z,9.33
2024-03-30T06:46:11.174Z,9.27
2024-03-30T06:47:11.258Z,11.94
2024-03-30T06:48:11.313Z,9.88
2024-03-30T06:49:11.385Z,12.00
2024-03-30T06:50:11.443Z,9.03
2024-03-30T06:51:11.511Z,10.20
2024-03-30T06:52:11.589Z,8.86
2024-03-30T06:53:11.640Z,10.44
2024-03-30T06:54:11.712Z,9.92
2024-03-30T06:55:11.782Z,10.77
2024-03-30T06:56:11.845Z,12.23
2024-03-30T06:57:11.924Z,11.28
2024-03-30T06:58:11.984Z,10.80
2024-03-30T06:59:12.040Z,10.55
2024-03-30T07:00:12.144Z,11.57
2024-03-30T07:01:12.182Z,12.13
2024-03-30T07:02:12.255Z,9.87
2024-03-30T07:03:12.305Z,9.36
2024-03-30T07:04:12.373Z,10.01
2024-03-30T07:05:12.431Z,10.57
2024-03-30T07:06:12.499Z,11.97
2024-03-30T07:07:15.015Z,12.77
2024-03-30T07:08:12.577Z,13.78
2024-03-30T07:09:12.575Z,13.10
2024-03-30T07:10:12.583Z,11.23
2024-03-30T07:11:12.576Z,12.75
2024-03-30T07:12:12.585Z,12.79
2024-03-30T07:13:12.585Z,11.90
2024-03-30T07:14:12.583Z,8.74
2024-03-30T07:15:12.595Z,11.74
2024-03-30T07:16:12.597Z,14.74
2024-03-30T07:17:14.932Z,9.93
2024-03-30T07:18:12.823Z,13.57
2024-03-30T07:19:12.888Z,10.86
2024-03-30T07:20:12.954Z,11.60
2024-03-30T07:21:13.024Z,13.64
2024-03-30T07:22:13.087Z,11.98
2024-03-30T07:23:13.122Z,16.20
2024-03-30T07:24:13.188Z,9.71
2024-03-30T07:25:13.240Z,11.41
2024-03-30T07:26:13.303Z,12.88
2024-03-30T07:27:13.370Z,12.69
2024-03-30T07:28:13.435Z,14.97
2024-03-30T07:29:13.514Z,12.33
2024-03-30T07:30:13.570Z,16.36
2024-03-30T07:31:13.632Z,10.98
2024-03-30T07:32:13.702Z,16.16
2024-03-30T07:33:13.765Z,12.12
2024-03-30T07:34:13.829Z,14.31
2024-03-30T07:35:13.917Z,11.50
2024-03-30T07:36:13.965Z,14.68
2024-03-30T07:37:14.062Z,12.61
2024-03-30T07:38:14.103Z,13.37
2024-03-30T07:39:14.164Z,13.36
2024-03-30T07:40:14.229Z,15.07
2024-03-30T07:41:14.259Z,17.63
2024-03-30T07:42:14.322Z,14.64
2024-03-30T07:43:14.367Z,16.86
2024-03-30T07:44:14.385Z,17.90
2024-03-30T07:45:14.430Z,14.94
2024-03-30T07:46:14.488Z,14.07
2024-03-30T07:47:14.505Z,14.51
2024-03-30T07:48:14.520Z,18.20
2024-03-30T07:49:14.535Z,16.08
2024-03-30T07:50:14.549Z,20.67
2024-03-30T07:51:14.573Z,24.21
2024-03-30T07:52:14.611Z,16.89
2024-03-30T07:53:14.658Z,16.46
2024-03-30T07:54:14.684Z,17.73
2024-03-30T07:55:14.707Z,19.16
2024-03-30T07:56:14.737Z,17.57
2024-03-30T07:57:14.752Z,18.03
2024-03-30T07:58:14.796Z,17.58
2024-03-30T07:59:14.824Z,17.16
2024-03-30T08:00:14.866Z,17.10
2024-03-30T08:01:14.872Z,16.49
2024-03-30T08:02:14.905Z,19.15
2024-03-30T08:03:14.952Z,17.53
2024-03-30T08:04:14.959Z,13.60
2024-03-30T08:05:14.973Z,19.21
2024-03-30T08:06:15.002Z,14.92
2024-03-30T08:07:15.042Z,15.00
2024-03-30T08:08:15.051Z,17.53
2024-03-30T08:09:15.101Z,21.08
2024-03-30T08:10:15.142Z,15.68
2024-03-30T08:11:15.168Z,16.38
2024-03-30T08:12:15.211Z,18.87
2024-03-30T08:13:15.273Z,17.95
2024-03-30T08:14:15.268Z,19.25
2024-03-30T08:15:15.291Z,15.91
2024-03-30T08:16:15.382Z,18.88
2024-03-30T08:17:15.388Z,16.25
2024-03-30T08:18:15.452Z,19.30
2024-03-30T08:19:15.510Z,16.97
2024-03-30T08:20:15.558Z,20.18
2024-03-30T08:21:15.597Z,21.06
2024-03-30T08:22:15.626Z,16.59
2024-03-30T08:23:15.663Z,15.05
2024-03-30T08:24:15.684Z,20.12
2024-03-30T08:25:15.748Z,19.72
2024-03-30T08:26:15.807Z,19.44
2024-03-30T08:27:15.842Z,19.67
2024-03-30T08:28:15.892Z,21.83
2024-03-30T08:29:15.910Z,20.19
2024-03-30T08:30:15.956Z,22.08
2024-03-30T08:31:15.988Z,22.29
2024-03-30T08:32:16.025Z,21.52
2024-03-30T08:33:16.083Z,15.92
2024-03-30T08:34:18.412Z,21.98
2024-03-30T08:35:16.090Z,19.26
2024-03-30T08:36:16.083Z,18.85
2024-03-30T08:37:16.085Z,18.27
2024-03-30T08:38:16.094Z,16.14
2024-03-30T08:39:16.104Z,22.18
2024-03-30T08:40:16.089Z,15.69
2024-03-30T08:41:16.097Z,15.57
2024-03-30T08:42:18.206Z,17.87
2024-03-30T08:43:16.118Z,17.88
2024-03-30T08:44:16.098Z,18.31
2024-03-30T08:45:16.108Z,22.71
2024-03-30T08:46:16.093Z,21.13
2024-03-30T08:47:16.099Z,21.40
2024-03-30T08:48:16.109Z,15.87
2024-03-30T08:49:16.113Z,23.08
2024-03-30T08:50:16.117Z,21.06
2024-03-30T08:51:16.115Z,20.22
2024-03-30T08:52:16.108Z,18.30
2024-03-30T08:53:16.158Z,26.39
2024-03-30T08:54:16.193Z,18.75
2024-03-30T08:55:16.250Z,19.53
2024-03-30T08:56:16.279Z,22.45
2024-03-30T08:57:16.324Z,20.96
2024-03-30T08:58:16.351Z,20.70
2024-03-30T08:59:16.380Z,19.54
2024-03-30T09:00:16.420Z,23.71
2024-03-30T09:01:16.473Z,22.85
2024-03-30T09:02:16.508Z,21.83
2024-03-30T09:03:16.562Z,14.03
2024-03-30T09:04:16.590Z,23.14
2024-03-30T09:05:16.647Z,20.82
2024-03-30T09:06:16.695Z,20.14
2024-03-30T09:07:16.721Z,26.09
2024-03-30T09:08:16.761Z,25.43
2024-03-30T09:09:16.812Z,28.98
2024-03-30T09:10:16.822Z,21.17
2024-03-30T09:11:16.871Z,26.21
2024-03-30T09:12:16.905Z,21.41
2024-03-30T09:13:16.938Z,19.68
2024-03-30T09:14:16.952Z,15.84
2024-03-30T09:15:17.006Z,18.10
2024-03-30T09:16:17.070Z,19.87
2024-03-30T09:17:17.078Z,20.61
2024-03-30T09:18:17.121Z,20.92
2024-03-30T09:19:17.154Z,23.52
2024-03-30T09:20:17.183Z,20.08
2024-03-30T09:21:17.204Z,20.46
2024-03-30T09:22:17.250Z,23.28
2024-03-30T09:23:17.329Z,19.50
2024-03-30T09:24:17.379Z,22.74
2024-03-30T09:25:17.394Z,19.88
2024-03-30T09:26:17.439Z,17.79
2024-03-30T09:27:17.483Z,22.35
2024-03-30T09:28:17.579Z,23.74
2024-03-30T09:29:17.627Z,21.29
2024-03-30T09:30:17.689Z,21.61
2024-03-30T09:31:17.743Z,26.72
2024-03-30T09:32:17.773Z,23.49
2024-03-30T09:33:17.830Z,25.10
2024-03-30T09:34:29.302Z,22.67
2024-03-30T09:35:18.907Z,22.11
2024-03-30T09:36:17.868Z,22.49
2024-03-30T09:37:17.899Z,21.93
2024-03-30T09:38:17.913Z,26.07
2024-03-30T09:39:17.873Z,19.95
2024-03-30T09:40:17.879Z,23.16
2024-03-30T09:41:17.882Z,22.77
2024-03-30T09:42:17.882Z,25.11
2024-03-30T09:43:17.898Z,22.26
2024-03-30T09:44:17.915Z,22.98
2024-03-30T09:45:17.887Z,21.61
2024-03-30T09:46:17.890Z,27.29
2024-03-30T09:47:17.887Z,23.76
2024-03-30T09:48:17.908Z,21.44
2024-03-30T09:49:17.907Z,26.01
2024-03-30T09:50:17.908Z,24.13
2024-03-30T09:51:17.893Z,20.51
2024-03-30T09:52:17.910Z,21.50
2024-03-30T09:53:17.905Z,20.41
2024-03-30T09:54:17.897Z,24.20
2024-03-30T09:55:17.898Z,29.43
2024-03-30T09:56:17.901Z,24.84
2024-03-30T09:57:17.899Z,27.23
2024-03-30T09:58:17.914Z,19.65
2024-03-30T09:59:17.970Z,23.17
2024-03-30T10:00:18.033Z,16.93
2024-03-30T10:01:18.099Z,20.12
2024-03-30T10:02:18.170Z,24.65
2024-03-30T10:03:18.231Z,24.17
2024-03-30T10:04:18.295Z,23.75
2024-03-30T10:05:32.544Z,25.30
2024-03-30T10:06:19.367Z,26.48
2024-03-30T10:07:18.374Z,23.40
2024-03-30T10:08:18.379Z,21.26
2024-03-30T10:09:18.386Z,20.60
2024-03-30T10:10:18.382Z,23.83
2024-03-30T10:11:18.370Z,28.16
2024-03-30T10:12:18.378Z,25.07
2024-03-30T10:13:18.370Z,25.38
2024-03-30T10:14:18.377Z,25.34
2024-03-30T10:15:18.386Z,21.24
2024-03-30T10:16:18.824Z,26.62
2024-03-30T10:17:18.479Z,25.90
2024-03-30T10:18:18.549Z,21.34
2024-03-30T10:19:18.594Z,21.82
2024-03-30T10:20:18.641Z,26.12
2024-03-30T10:21:18.704Z,22.42
2024-03-30T10:22:18.758Z,19.71
2024-03-30T10:23:18.804Z,25.07
2024-03-30T10:24:18.853Z,21.43
2024-03-30T10:25:18.893Z,22.51
2024-03-30T10:26:18.923Z,22.53
2024-03-30T10:27:18.950Z,21.16
2024-03-30T10:28:19.012Z,27.12
2024-03-30T10:29:19.035Z,24.65
2024-03-30T10:30:19.093Z,20.45
2024-03-30T10:31:19.115Z,25.56
2024-03-30T10:32:19.172Z,24.81
2024-03-30T10:33:19.199Z,27.86
2024-03-30T10:34:19.247Z,28.71
2024-03-30T10:35:19.279Z,22.50
2024-03-30T10:36:19.341Z,23.32
2024-03-30T10:37:19.395Z,25.37
2024-03-30T10:38:19.431Z,25.29
2024-03-30T10:39:19.479Z,22.84
2024-03-30T10:40:19.540Z,17.86
2024-03-30T10:41:19.600Z,24.44
2024-03-30T10:42:19.634Z,23.64
2024-03-30T10:43:22.070Z,23.88
2024-03-30T10:44:19.685Z,23.24
2024-03-30T10:45:19.683Z,31.19
2024-03-30T10:46:19.679Z,27.49
2024-03-30T10:47:19.678Z,25.41
2024-03-30T10:48:19.672Z,25.77
2024-03-30T10:49:19.679Z,27.75
2024-03-30T10:50:23.298Z,23.19
2024-03-30T10:51:20.691Z,25.87
2024-03-30T10:52:19.680Z,28.48
2024-03-30T10:53:19.697Z,22.44
2024-03-30T10:54:19.716Z,24.52
2024-03-30T10:55:19.682Z,24.74
2024-03-30T10:56:22.847Z,24.65
2024-03-30T10:57:19.691Z,26.54
2024-03-30T10:58:19.691Z,27.42
2024-03-30T10:59:19.704Z,28.26
2024-03-30T11:00:19.706Z,22.82
2024-03-30T11:01:19.687Z,24.84
2024-03-30T11:02:21.234Z,27.00
2024-03-30T11:03:19.688Z,26.68
2024-03-30T11:04:19.719Z,22.37
2024-03-30T11:05:19.712Z,25.10
2024-03-30T11:06:19.706Z,23.97
2024-03-30T11:07:19.710Z,26.06
2024-03-30T11:08:19.720Z,28.79
2024-03-30T11:09:19.720Z,27.48
2024-03-30T11:10:19.715Z,23.93
2024-03-30T11:11:19.710Z,24.02
2024-03-30T11:12:19.706Z,24.51
2024-03-30T11:13:19.707Z,26.78
2024-03-30T11:14:19.724Z,21.09
2024-03-30T11:15:19.735Z,29.72
2024-03-30T11:16:19.752Z,26.32
2024-03-30T11:17:19.799Z,28.40
2024-03-30T11:18:22.963Z,34.58
2024-03-30T11:19:19.870Z,29.66
2024-03-30T11:20:19.870Z,27.80
2024-03-30T11:21:19.862Z,22.88
2024-03-30T11:22:19.865Z,27.74
2024-03-30T11:23:19.871Z,25.63
2024-03-30T11:24:22.729Z,27.61
2024-03-30T11:25:19.923Z,22.53
2024-03-30T11:26:19.889Z,26.95
2024-03-30T11:27:19.888Z,26.00
2024-03-30T11:28:19.903Z,27.36
2024-03-30T11:29:19.897Z,29.80
2024-03-30T11:30:19.882Z,27.33
2024-03-30T11:31:19.921Z,22.02
2024-03-30T11:32:19.897Z,28.91
2024-03-30T11:33:19.890Z,24.91
2024-03-30T11:34:19.909Z,29.41
2024-03-30T11:35:19.897Z,26.43
2024-03-30T11:36:19.903Z,26.15
2024-03-30T11:37:19.913Z,28.47
2024-03-30T11:38:29.774Z,25.43
2024-03-30T11:39:20.908Z,26.30
2024-03-30T11:40:23.240Z,25.52
2024-03-30T11:41:19.906Z,30.02
2024-03-30T11:42:19.913Z,31.79
2024-03-30T11:43:19.919Z,25.20
2024-03-30T11:44:19.916Z,30.77
2024-03-30T11:45:19.902Z,27.13
2024-03-30T11:46:19.911Z,33.26
2024-03-30T11:47:19.909Z,26.64
2024-03-30T11:48:19.920Z,29.07
2024-03-30T11:49:19.932Z,27.04
2024-03-30T11:50:19.926Z,26.19
2024-03-30T11:51:19.917Z,25.13
2024-03-30T11:52:19.946Z,29.08
2024-03-30T11:53:19.924Z,28.00
2024-03-30T11:54:19.928Z,28.17
2024-03-30T11:55:19.932Z,28.97
2024-03-30T11:56:19.930Z,25.72
2024-03-30T11:57:24.419Z,25.60
2024-03-30T11:58:20.935Z,25.06
2024-03-30T11:59:19.940Z,28.72
2024-03-30T12:00:19.935Z,28.50
2024-03-30T12:01:19.953Z,27.66
2024-03-30T12:02:19.951Z,26.33
2024-03-30T12:03:19.954Z,27.34
2024-03-30T12:04:19.942Z,30.53
2024-03-30T12:05:19.930Z,28.88
2024-03-30T12:06:19.935Z,26.92
2024-03-30T12:07:19.934Z,27.99
2024-03-30T12:08:20.003Z,35.35
2024-03-30T12:09:20.054Z,40.65
2024-03-30T12:10:20.130Z,35.39
2024-03-30T12:11:20.168Z,29.32
2024-03-30T12:12:20.246Z,29.09
2024-03-30T12:13:20.300Z,25.21
2024-03-30T12:14:20.401Z,29.06
2024-03-30T12:15:20.417Z,30.25
2024-03-30T12:16:20.490Z,27.81
2024-03-30T12:17:20.531Z,27.80
2024-03-30T12:18:20.603Z,28.53
2024-03-30T12:19:20.684Z,22.57
2024-03-30T12:20:20.717Z,30.61
2024-03-30T12:21:20.787Z,26.14
2024-03-30T12:22:20.851Z,27.33
2024-03-30T12:23:20.919Z,27.27
2024-03-30T12:24:20.980Z,28.93
2024-03-30T12:25:21.039Z,25.58
2024-03-30T12:26:21.047Z,26.69
2024-03-30T12:27:21.048Z,26.75
2024-03-30T12:28:21.050Z,27.45
2024-03-30T12:29:31.946Z,23.23
2024-03-30T12:30:22.054Z,32.41
2024-03-30T12:31:21.081Z,28.16
2024-03-30T12:32:21.078Z,27.15
2024-03-30T12:33:21.061Z,30.06
2024-03-30T12:34:21.078Z,27.55
2024-03-30T12:35:21.060Z,26.90
2024-03-30T12:36:21.066Z,27.58
2024-03-30T12:37:21.059Z,26.61
2024-03-30T12:38:21.063Z,23.36
2024-03-30T12:39:21.067Z,27.63
2024-03-30T12:40:21.079Z,29.66
2024-03-30T12:41:21.084Z,27.95
2024-03-30T12:42:21.064Z,25.32
2024-03-30T12:43:21.065Z,24.99
2024-03-30T12:44:23.700Z,28.57
2024-03-30T12:45:21.061Z,22.68
2024-03-30T12:46:21.068Z,26.41
2024-03-30T12:47:21.113Z,25.04
2024-03-30T12:48:21.083Z,25.93
2024-03-30T12:49:21.077Z,25.02
2024-03-30T12:50:21.086Z,23.20
2024-03-30T12:51:21.076Z,23.37
2024-03-30T12:52:21.080Z,23.18
2024-03-30T12:53:21.084Z,29.53
2024-03-30T12:54:21.091Z,29.56
2024-03-30T12:55:21.098Z,22.93
2024-03-30T12:56:21.090Z,31.03
2024-03-30T12:57:21.089Z,25.75